createdAt,value
2022-11-21T00:04:02.621Z,1.40
2022-11-21T00:08:05.866Z,0.55
2022-11-21T00:12:08.677Z,0.47
2022-11-21T00:16:13.825Z,0.70
2022-11-21T00:20:19.248Z,0.40
2022-11-21T00:24:21.963Z,0.90
2022-11-21T00:28:24.665Z,1.63
2022-11-21T00:32:27.458Z,0.40
2022-11-21T00:36:31.562Z,0.50
2022-11-21T00:40:34.364Z,0.52
2022-11-21T00:44:37.073Z,1.05
2022-11-21T00:48:39.797Z,1.02
2022-11-21T00:52:43.869Z,0.98
2022-11-21T00:56:46.611Z,0.95
2022-11-21T01:00:49.382Z,0.70
2022-11-21T01:04:52.153Z,0.80
2022-11-21T01:08:56.222Z,0.65
2022-11-21T01:12:59.064Z,1.50
2022-11-21T01:17:01.884Z,0.80
2022-11-21T01:21:06.095Z,0.73
2022-11-21T01:25:10.757Z,2.42
2022-11-21T01:29:13.580Z,1.27
2022-11-21T01:33:16.317Z,1.65
2022-11-21T01:37:19.039Z,0.60
2022-11-21T01:41:26.786Z,0.93
2022-11-21T01:45:55.000Z,0.73
2022-11-21T01:49:57.847Z,0.70
2022-11-21T01:54:03.653Z,1.25
2022-11-21T01:58:07.795Z,2.92
2022-11-21T02:02:14.529Z,2.90
2022-11-21T02:06:17.441Z,4.15
2022-11-21T02:10:20.469Z,1.77
2022-11-21T02:14:25.307Z,1.83
2022-11-21T02:18:28.275Z,1.75
2022-11-21T02:22:37.844Z,2.45
2022-11-21T02:26:43.117Z,0.52
2022-11-21T02:30:45.939Z,1.25
2022-11-21T02:34:48.647Z,1.48
2022-11-21T02:38:51.434Z,1.95
2022-11-21T02:43:02.293Z,3.33
2022-11-21T02:47:05.194Z,0.47
2022-11-21T02:51:07.916Z,2.13
2022-11-21T02:55:11.606Z,1.02
2022-11-21T02:59:15.632Z,2.72
2022-11-21T03:03:18.350Z,2.28
2022-11-21T03:07:21.151Z,2.35
2022-11-21T03:11:23.873Z,2.08
2022-11-21T03:15:29.224Z,1.75
2022-11-21T03:19:32.030Z,1.30
2022-11-21T03:23:34.701Z,1.00
2022-11-21T03:27:37.421Z,1.77
2022-11-21T03:31:41.629Z,2.63
2022-11-21T03:35:44.368Z,1.73
2022-11-21T03:39:47.127Z,2.72
2022-11-21T03:43:49.795Z,4.82
2022-11-21T03:47:53.856Z,5.72
2022-11-21T03:51:56.685Z,2.63
2022-11-21T03:55:59.382Z,4.88
2022-11-21T04:00:02.084Z,1.65
2022-11-21T04:04:08.808Z,2.67
2022-11-21T04:08:11.667Z,2.78
2022-11-21T04:12:14.377Z,5.05
2022-11-21T04:16:17.144Z,2.50
2022-11-21T04:20:21.315Z,5.50
2022-11-21T04:24:24.163Z,1.98
2022-11-21T04:28:27.111Z,2.90
2022-11-21T04:32:29.841Z,2.75
2022-11-21T04:36:34.038Z,4.75
2022-11-21T04:40:37.001Z,5.72
2022-11-21T04:44:39.718Z,7.35
2022-11-21T04:48:42.438Z,3.22
2022-11-21T04:52:52.010Z,1.63
2022-11-21T04:56:54.791Z,5.18
2022-11-21T05:00:57.708Z,3.97
2022-11-21T05:05:00.498Z,3.40
2022-11-21T05:09:04.597Z,2.63
2022-11-21T05:13:22.275Z,6.72
2022-11-21T05:17:24.986Z,3.22
2022-11-21T05:21:27.749Z,2.05
2022-11-21T05:25:31.875Z,2.35
2022-11-21T05:29:34.582Z,3.05
2022-11-21T05:33:37.286Z,7.32
2022-11-21T05:37:40.031Z,3.65
2022-11-21T05:41:44.077Z,1.10
2022-11-21T05:45:46.803Z,1.55
2022-11-21T05:49:49.533Z,2.97
2022-11-21T05:53:52.272Z,3.15
2022-11-21T05:57:59.722Z,1.77
2022-11-21T06:02:19.900Z,1.77
2022-11-21T06:06:25.022Z,3.55
2022-11-21T06:10:27.883Z,1.38
2022-11-21T06:14:31.931Z,0.90
2022-11-21T06:18:36.375Z,2.92
2022-11-21T06:22:39.083Z,3.38
2022-11-21T06:26:41.790Z,1.02
2022-11-21T06:30:46.253Z,0.68
2022-11-21T06:34:48.958Z,3.95
2022-11-21T06:38:53.753Z,1.00
2022-11-21T06:42:57.536Z,3.28
2022-11-21T06:47:01.686Z,2.17
2022-11-21T06:51:09.062Z,1.30
2022-11-21T06:55:12.360Z,0.35
2022-11-21T06:59:15.220Z,0.60
2022-11-21T07:03:19.373Z,2.15
2022-11-21T07:07:22.193Z,1.42
2022-11-21T07:11:25.666Z,1.77
2022-11-21T07:15:28.580Z,0.70
2022-11-21T07:19:34.585Z,0.28
2022-11-21T07:23:40.362Z,1.00
2022-11-21T07:27:43.156Z,0.57
2022-11-21T07:31:45.891Z,1.15
2022-11-21T07:35:50.013Z,0.20
2022-11-21T07:39:52.897Z,0.35
2022-11-21T07:43:55.585Z,1.50
2022-11-21T07:47:59.381Z,0.40
2022-11-21T07:52:03.481Z,4.53
2022-11-21T07:56:09.363Z,1.83
2022-11-21T08:00:13.188Z,0.50
2022-11-21T08:04:15.985Z,1.02
2022-11-21T08:08:19.958Z,0.50
2022-11-21T08:12:22.783Z,0.57
2022-11-21T08:16:27.941Z,2.05
2022-11-21T08:20:30.643Z,1.52
2022-11-21T08:24:34.809Z,0.88
2022-11-21T08:28:37.829Z,1.55
2022-11-21T08:32:40.555Z,2.03
2022-11-21T08:36:43.242Z,2.08
2022-11-21T08:40:47.299Z,0.25
2022-11-21T08:44:50.026Z,0.93
2022-11-21T08:48:52.730Z,1.08
2022-11-21T08:53:01.169Z,4.18
2022-11-21T08:57:05.396Z,3.08
2022-11-21T09:01:10.061Z,1.85
2022-11-21T09:05:14.817Z,6.18
2022-11-21T09:09:23.789Z,2.72
2022-11-21T09:13:29.285Z,2.75
2022-11-21T09:17:49.579Z,3.65
2022-11-21T09:21:52.908Z,1.58
2022-11-21T09:25:56.159Z,1.38
2022-11-21T09:30:00.288Z,1.67
2022-11-21T09:34:02.982Z,2.08
2022-11-21T09:38:06.126Z,3.67
2022-11-21T09:42:33.790Z,1.90
2022-11-21T09:46:46.049Z,1.55
2022-11-21T09:50:53.985Z,3.38
2022-11-21T09:55:02.486Z,1.33
2022-11-21T09:59:13.772Z,3.95
2022-11-21T10:03:22.129Z,0.77
2022-11-21T10:07:28.124Z,4.05
2022-11-21T10:11:58.374Z,4.47
2022-11-21T10:16:07.398Z,3.38
2022-11-21T10:20:23.399Z,2.63
2022-11-21T10:24:41.649Z,8.13
2022-11-21T10:28:51.817Z,4.55
2022-11-21T10:32:57.669Z,3.50
2022-11-21T10:37:11.783Z,2.95
2022-11-21T10:41:19.298Z,2.08
2022-11-21T10:45:22.924Z,3.05
2022-11-21T10:49:27.175Z,2.75
2022-11-21T10:53:49.791Z,4.70
2022-11-21T10:57:54.857Z,1.00
2022-11-21T11:02:00.142Z,10.70
2022-11-21T11:06:02.863Z,4.25
2022-11-21T11:10:26.885Z,2.58
2022-11-21T11:14:33.178Z,1.55
2022-11-21T11:18:38.609Z,2.70
2022-11-21T11:22:41.361Z,2.50
2022-11-21T11:26:56.297Z,3.55
2022-11-21T11:30:59.201Z,2.58
2022-11-21T11:35:09.344Z,2.20
2022-11-21T11:39:20.629Z,2.58
2022-11-21T11:43:50.799Z,4.93
2022-11-21T11:47:56.907Z,4.50
2022-11-21T11:52:04.932Z,1.65
2022-11-21T11:56:13.767Z,1.63
2022-11-21T12:00:27.185Z,6.90
2022-11-21T12:04:33.428Z,7.95
2022-11-21T12:08:43.148Z,4.57
2022-11-21T12:12:50.015Z,3.85
2022-11-21T12:16:54.261Z,6.38
2022-11-21T12:21:04.833Z,2.00
2022-11-21T12:25:12.227Z,6.93
2022-11-21T12:29:30.037Z,3.35
2022-11-21T12:33:42.097Z,2.05
2022-11-21T12:37:52.871Z,3.28
2022-11-21T12:42:18.319Z,2.25
2022-11-21T12:46:26.605Z,2.40
2022-11-21T12:50:55.284Z,2.70
2022-11-21T12:55:10.793Z,2.40
2022-11-21T12:59:16.085Z,4.55
2022-11-21T13:03:30.784Z,1.73
2022-11-21T13:07:37.226Z,4.95
2022-11-21T13:12:01.754Z,3.70
2022-11-21T13:16:11.495Z,2.75
2022-11-21T13:20:21.900Z,6.10
2022-11-21T13:24:58.024Z,2.95
2022-11-21T13:29:09.370Z,4.38
2022-11-21T13:33:32.754Z,3.47
2022-11-21T13:38:01.658Z,5.40
2022-11-21T13:42:40.752Z,8.02
2022-11-21T13:46:58.674Z,3.92
2022-11-21T13:51:42.425Z,2.45
2022-11-21T13:55:57.938Z,7.68
2022-11-21T14:00:20.336Z,4.22
2022-11-21T14:04:39.570Z,3.58
2022-11-21T14:08:43.735Z,3.20
2022-11-21T14:12:49.992Z,5.05
2022-11-21T14:17:01.673Z,5.18
2022-11-21T14:21:08.192Z,10.80
2022-11-21T14:25:17.662Z,4.60
2022-11-21T14:29:22.588Z,2.60
2022-11-21T14:33:29.446Z,3.58
2022-11-21T14:37:32.950Z,2.70
2022-11-21T14:41:38.038Z,2.63
2022-11-21T14:45:50.214Z,6.28
2022-11-21T14:49:55.618Z,7.05
2022-11-21T14:53:58.364Z,3.55
2022-11-21T14:58:03.244Z,3.13
2022-11-21T15:02:12.957Z,4.93
2022-11-21T15:06:17.017Z,8.77
2022-11-21T15:10:29.124Z,7.53
2022-11-21T15:14:37.174Z,5.65
2022-11-21T15:18:42.658Z,4.22
2022-11-21T15:22:48.643Z,6.10
2022-11-21T15:26:51.420Z,5.65
2022-11-21T15:31:16.913Z,5.47
2022-11-21T15:35:32.156Z,8.40
2022-11-21T15:39:37.882Z,12.40
2022-11-21T15:43:43.211Z,6.57
2022-11-21T15:47:47.014Z,5.13
2022-11-21T15:56:22.793Z,13.38
2022-11-21T15:57:12.591Z,8.02
2022-11-21T16:00:25.901Z,7.63
2022-11-21T16:04:28.726Z,13.02
2022-11-21T16:08:31.752Z,7.57
2022-11-21T16:12:35.924Z,5.80
2022-11-21T16:16:43.221Z,6.97
2022-11-21T16:20:46.476Z,8.57
2022-11-21T16:24:49.559Z,9.65
2022-11-21T16:28:54.512Z,6.43
2022-11-21T16:32:57.225Z,7.50
2022-11-21T16:37:05.829Z,6.10
2022-11-21T16:41:09.977Z,6.28
2022-11-21T16:45:14.053Z,4.85
2022-11-21T16:49:16.929Z,5.88
2022-11-21T16:53:19.674Z,6.22
2022-11-21T16:57:22.381Z,8.60
2022-11-21T17:01:28.078Z,10.98
2022-11-21T17:05:31.001Z,7.53
2022-11-21T17:09:33.712Z,12.40
2022-11-21T17:13:36.456Z,11.10
2022-11-21T17:17:41.575Z,4.25
2022-11-21T17:21:44.330Z,7.40
2022-11-21T17:25:47.085Z,6.55
2022-11-21T17:29:49.817Z,10.48
2022-11-21T17:33:54.667Z,10.60
2022-11-21T17:37:57.431Z,9.20
2022-11-21T17:42:01.384Z,9.50
2022-11-21T17:46:09.675Z,10.52
2022-11-21T17:50:14.851Z,9.73
2022-11-21T17:54:17.542Z,13.00
2022-11-21T17:58:20.283Z,6.70
2022-11-21T18:02:23.184Z,9.05
2022-11-21T18:06:29.259Z,11.32
2022-11-21T18:10:47.421Z,7.65
2022-11-21T18:14:50.424Z,4.95
2022-11-21T18:18:53.294Z,10.02
2022-11-21T18:22:57.366Z,11.50
2022-11-21T18:27:00.089Z,14.25
2022-11-21T18:31:07.818Z,7.45
2022-11-21T18:35:10.553Z,4.93
2022-11-21T18:39:27.274Z,9.18
2022-11-21T18:43:30.173Z,3.80
2022-11-21T18:47:32.944Z,7.13
2022-11-21T18:51:37.046Z,7.07
2022-11-21T18:55:41.179Z,7.22
2022-11-21T18:59:44.044Z,5.65
2022-11-21T19:03:47.694Z,4.80
2022-11-21T19:07:53.239Z,9.90
2022-11-21T19:11:57.365Z,4.45
2022-11-21T19:16:02.077Z,7.55
2022-11-21T19:20:05.395Z,5.82
2022-11-21T19:24:12.952Z,8.52
2022-11-21T19:28:17.059Z,4.55
2022-11-21T19:32:19.781Z,5.30
2022-11-21T19:36:24.575Z,6.13
2022-11-21T19:40:47.610Z,4.82
2022-11-21T19:44:51.723Z,4.82
2022-11-21T19:48:56.037Z,5.00
2022-11-21T19:52:58.934Z,4.35
2022-11-21T19:57:01.760Z,5.80
2022-11-21T20:01:11.000Z,6.72
2022-11-21T20:05:15.736Z,5.50
2022-11-21T20:09:20.255Z,4.35
2022-11-21T20:13:23.064Z,4.65
2022-11-21T20:17:27.190Z,4.65
2022-11-21T20:21:30.206Z,6.53
2022-11-21T20:25:32.958Z,4.47
2022-11-21T20:29:37.490Z,4.88
2022-11-21T20:33:43.692Z,5.65
2022-11-21T20:37:47.424Z,7.03
2022-11-21T20:41:50.221Z,5.25
2022-11-21T20:46:12.915Z,6.07
2022-11-21T20:50:50.071Z,4.18
2022-11-21T20:54:41.773Z,5.70
2022-11-21T20:58:45.486Z,4.03
2022-11-21T21:02:48.274Z,4.18
2022-11-21T21:06:52.333Z,5.18
2022-11-21T21:11:06.824Z,5.90
2022-11-21T21:15:10.470Z,4.07
2022-11-21T21:19:13.188Z,5.13
2022-11-21T21:23:17.238Z,4.13
2022-11-21T21:27:20.245Z,3.38
2022-11-21T21:31:23.982Z,3.30
2022-11-21T21:35:27.011Z,3.05
2022-11-21T21:39:31.154Z,2.30
2022-11-21T21:43:34.358Z,4.72
2022-11-21T21:47:39.228Z,3.17
2022-11-21T21:51:43.153Z,5.18
2022-11-21T21:55:47.216Z,4.53
2022-11-21T21:59:49.937Z,6.57
2022-11-21T22:03:54.534Z,5.53
2022-11-21T22:07:59.069Z,3.33
2022-11-21T22:12:03.130Z,6.22
2022-11-21T22:16:07.763Z,8.48
2022-11-21T22:20:11.236Z,5.43
2022-11-21T22:24:30.787Z,5.30
2022-11-21T22:28:34.963Z,4.75
2022-11-21T22:32:37.722Z,4.18
2022-11-21T22:36:41.424Z,4.70
2022-11-21T22:40:44.493Z,4.32
2022-11-21T22:44:48.528Z,4.60
2022-11-21T22:48:51.233Z,4.95
2022-11-21T22:52:53.926Z,3.33
2022-11-21T22:56:56.682Z,3.45
2022-11-21T23:01:06.864Z,2.97
2022-11-21T23:05:10.026Z,4.20
2022-11-21T23:09:12.713Z,4.07
2022-11-21T23:13:15.433Z,5.63
2022-11-21T23:17:20.343Z,5.57
2022-11-21T23:21:23.395Z,3.95
2022-11-21T23:25:26.377Z,4.88
2022-11-21T23:29:29.357Z,5.40
2022-11-21T23:33:33.588Z,5.68
2022-11-21T23:37:36.289Z,5.18
2022-11-21T23:41:39.005Z,6.13
2022-11-21T23:45:41.829Z,3.80
2022-11-21T23:49:50.023Z,5.93
2022-11-21T23:53:52.954Z,4.50
2022-11-21T23:57:55.651Z,6.68
